Terminal Aerodrome Forecast
Issued by NWS

Home | Current Version | Previous Version | Text Only | Print | Product List | Glossary On
Versions: 1 2 3 4 5 6 7 8 9 10 11 12 13 14
778
FTUS43 KGRB 181736
TAFAUW
TAF
KAUW 181736Z 1818/1918 16015G25KT P6SM BKN110 WS017/19045KT
     FM190000 16009G15KT P6SM BKN100 WS017/19045KT
     FM190600 17006KT P6SM BKN080 WS017/22040KT
     FM191100 36006KT P6SM BKN018
     FM191500 04009G15KT 4SM -FZRASNPL OVC010=

USA.gov is the U.S. government's official web portal to all federal, state and local government web resources and services.